createdAt,value
2022-12-31T00:02:19.599Z,1.80
2022-12-31T00:04:49.160Z,1.75
2022-12-31T00:07:19.992Z,1.73
2022-12-31T00:09:50.539Z,2.38
2022-12-31T00:12:21.637Z,2.30
2022-12-31T00:14:49.367Z,1.65
2022-12-31T00:17:17.050Z,2.15
2022-12-31T00:19:45.414Z,2.03
2022-12-31T00:22:14.971Z,2.60
2022-12-31T00:24:45.523Z,3.47
2022-12-31T00:27:16.355Z,3.20
2022-12-31T00:29:44.665Z,2.67
2022-12-31T00:32:12.683Z,2.58
2022-12-31T00:34:40.503Z,2.47
2022-12-31T00:37:09.302Z,1.95
2022-12-31T00:39:37.135Z,2.45
2022-12-31T00:42:07.408Z,2.50
2022-12-31T00:44:36.295Z,4.63
2022-12-31T00:47:04.921Z,3.30
2022-12-31T00:49:34.811Z,3.75
2022-12-31T00:52:05.308Z,2.25
2022-12-31T00:54:38.218Z,3.97
2022-12-31T00:57:07.075Z,2.30
2022-12-31T00:59:34.975Z,3.58
2022-12-31T01:02:02.835Z,3.08
2022-12-31T01:04:41.187Z,5.70
2022-12-31T01:07:12.880Z,3.35
2022-12-31T01:09:43.674Z,3.35
2022-12-31T01:12:11.672Z,2.50
2022-12-31T01:14:39.504Z,2.47
2022-12-31T01:17:07.295Z,2.40
2022-12-31T01:20:08.626Z,2.33
2022-12-31T01:22:38.780Z,2.45
2022-12-31T01:25:07.149Z,2.25
2022-12-31T01:27:41.984Z,3.10
2022-12-31T01:30:10.311Z,1.83
2022-12-31T01:32:38.802Z,2.50
2022-12-31T01:35:06.885Z,3.72
2022-12-31T01:37:40.320Z,2.65
2022-12-31T01:40:20.260Z,3.65
2022-12-31T01:43:06.386Z,3.22
2022-12-31T01:45:36.601Z,2.60
2022-12-31T01:48:21.530Z,2.92
2022-12-31T01:50:50.043Z,4.72
2022-12-31T01:53:19.021Z,3.25
2022-12-31T01:55:52.942Z,3.35
2022-12-31T01:58:45.041Z,2.70
2022-12-31T02:01:23.473Z,4.57
2022-12-31T02:03:52.253Z,2.20
2022-12-31T02:06:53.266Z,2.88
2022-12-31T02:09:23.774Z,2.72
2022-12-31T02:14:25.484Z,2.15
2022-12-31T02:17:24.856Z,3.60
2022-12-31T02:20:30.327Z,3.20
2022-12-31T02:23:16.702Z,2.58
2022-12-31T02:25:52.997Z,4.50
2022-12-31T02:28:55.052Z,2.28
2022-12-31T02:31:32.882Z,2.88
2022-12-31T02:34:13.596Z,3.03
2022-12-31T02:36:48.128Z,2.25
2022-12-31T02:39:16.889Z,2.83
2022-12-31T02:41:52.599Z,2.45
2022-12-31T02:44:37.158Z,2.47
2022-12-31T02:47:21.866Z,1.83
2022-12-31T02:50:30.326Z,1.40
2022-12-31T02:53:01.246Z,1.90
2022-12-31T02:55:35.240Z,2.30
2022-12-31T02:58:48.924Z,2.83
2022-12-31T03:01:43.435Z,2.50
2022-12-31T03:04:34.338Z,1.10
2022-12-31T03:07:09.457Z,2.08
2022-12-31T03:09:40.666Z,1.90
2022-12-31T03:12:28.822Z,1.45
2022-12-31T03:14:59.414Z,1.77
2022-12-31T03:20:20.424Z,1.05
2022-12-31T03:23:10.819Z,1.65
2022-12-31T03:25:44.333Z,1.52
2022-12-31T03:28:16.353Z,0.90
2022-12-31T03:30:49.364Z,1.30
2022-12-31T03:33:20.697Z,1.15
2022-12-31T03:35:52.811Z,1.00
2022-12-31T03:38:23.510Z,0.80
2022-12-31T03:40:53.249Z,1.02
2022-12-31T03:43:32.586Z,0.68
2022-12-31T03:46:14.893Z,0.77
2022-12-31T03:48:47.065Z,0.93
2022-12-31T03:51:40.888Z,0.75
2022-12-31T03:54:52.787Z,0.50
2022-12-31T03:57:35.341Z,0.43
2022-12-31T04:01:33.516Z,0.40
2022-12-31T04:04:13.760Z,0.40
2022-12-31T04:09:59.391Z,0.38
2022-12-31T04:12:44.665Z,0.40
2022-12-31T04:15:20.699Z,0.50
2022-12-31T04:18:22.056Z,0.40
2022-12-31T04:21:22.697Z,0.50
2022-12-31T04:24:17.700Z,0.40
2022-12-31T04:50:20.371Z,1.30
2022-12-31T04:53:14.039Z,1.20
2022-12-31T04:56:32.223Z,1.00
2022-12-31T05:00:10.061Z,1.05
2022-12-31T05:04:19.072Z,1.20
2022-12-31T05:07:00.416Z,2.25
2022-12-31T05:10:26.013Z,3.55
2022-12-31T05:13:16.605Z,2.97
2022-12-31T05:16:17.386Z,2.60
2022-12-31T05:19:09.689Z,2.90
2022-12-31T05:22:11.477Z,2.80
2022-12-31T05:24:53.752Z,4.07
2022-12-31T05:27:28.913Z,2.15
2022-12-31T05:30:14.577Z,3.00
2022-12-31T05:32:49.006Z,2.55
2022-12-31T05:35:25.979Z,2.70
2022-12-31T05:38:03.963Z,2.42
2022-12-31T05:40:34.563Z,2.95
2022-12-31T05:43:02.644Z,2.33
2022-12-31T05:45:33.116Z,3.15
2022-12-31T05:48:05.024Z,2.28
2022-12-31T05:50:35.969Z,2.63
2022-12-31T05:53:07.509Z,2.78
2022-12-31T05:55:40.669Z,2.53
2022-12-31T05:58:16.095Z,2.35
2022-12-31T06:00:52.118Z,3.58
2022-12-31T06:03:23.931Z,2.33
2022-12-31T06:05:57.988Z,3.15
2022-12-31T06:08:25.975Z,2.45
2022-12-31T06:10:55.182Z,2.85
2022-12-31T06:13:23.146Z,2.38
2022-12-31T06:15:53.446Z,2.78
2022-12-31T06:18:21.527Z,3.05
2022-12-31T06:20:52.399Z,2.85
2022-12-31T06:23:21.789Z,2.97
2022-12-31T06:25:50.608Z,5.18
2022-12-31T06:28:24.757Z,3.88
2022-12-31T06:31:08.950Z,4.18
2022-12-31T06:33:37.219Z,4.25
2022-12-31T06:36:09.416Z,3.80
2022-12-31T06:38:43.661Z,4.15
2022-12-31T06:41:13.677Z,4.70
2022-12-31T06:43:43.128Z,4.50
2022-12-31T06:46:13.748Z,4.53
2022-12-31T06:48:44.727Z,3.83
2022-12-31T06:51:17.579Z,3.17
2022-12-31T06:53:56.629Z,5.38
2022-12-31T06:56:33.908Z,2.88
2022-12-31T06:59:05.049Z,4.15
2022-12-31T07:02:15.027Z,2.70
2022-12-31T07:04:57.879Z,4.40
2022-12-31T07:08:10.646Z,3.30
2022-12-31T07:10:53.998Z,4.18
2022-12-31T07:13:49.100Z,5.50
2022-12-31T07:16:30.005Z,3.83
2022-12-31T07:21:42.313Z,4.03
2022-12-31T07:24:20.315Z,2.38
2022-12-31T07:26:56.865Z,2.65
2022-12-31T07:29:27.966Z,2.45
2022-12-31T07:32:18.520Z,2.17
2022-12-31T07:35:34.546Z,2.92
2022-12-31T07:38:24.710Z,2.88
2022-12-31T07:41:10.021Z,2.20
2022-12-31T07:43:41.330Z,2.00
2022-12-31T07:46:47.502Z,2.47
2022-12-31T07:49:30.902Z,3.60
2022-12-31T07:52:00.462Z,3.90
2022-12-31T07:54:40.815Z,3.38
2022-12-31T07:57:17.079Z,3.15
2022-12-31T08:00:06.135Z,3.67
2022-12-31T08:03:27.144Z,2.42
2022-12-31T08:06:46.644Z,3.72
2022-12-31T08:09:39.627Z,2.88
2022-12-31T08:12:17.311Z,2.95
2022-12-31T08:14:51.572Z,3.42
2022-12-31T08:17:23.372Z,3.20
2022-12-31T08:20:00.427Z,4.10
2022-12-31T08:22:55.194Z,3.55
2022-12-31T08:25:53.208Z,3.22
2022-12-31T08:28:55.487Z,3.85
2022-12-31T08:31:53.846Z,4.25
2022-12-31T08:34:50.189Z,4.47
2022-12-31T08:37:51.067Z,3.88
2022-12-31T08:40:41.982Z,3.38
2022-12-31T08:43:44.283Z,3.85
2022-12-31T08:49:27.520Z,4.72
2022-12-31T08:51:56.713Z,4.30
2022-12-31T08:54:25.499Z,4.07
2022-12-31T08:57:30.377Z,4.57
2022-12-31T09:00:11.877Z,5.05
2022-12-31T09:03:24.192Z,4.35
2022-12-31T09:06:31.422Z,5.35
2022-12-31T09:09:47.190Z,4.07
2022-12-31T09:13:07.918Z,4.93
2022-12-31T09:19:39.315Z,4.47
2022-12-31T09:22:17.470Z,3.90
2022-12-31T09:25:17.927Z,3.47
2022-12-31T09:28:38.005Z,3.92
2022-12-31T09:31:44.715Z,4.45
2022-12-31T09:34:26.851Z,6.72
2022-12-31T09:37:05.761Z,5.50
2022-12-31T09:40:19.410Z,6.15
2022-12-31T09:43:07.982Z,5.85
2022-12-31T09:46:17.711Z,5.32
2022-12-31T09:49:06.319Z,4.97
2022-12-31T09:52:08.596Z,7.68
2022-12-31T09:55:05.641Z,3.83
2022-12-31T09:58:42.478Z,4.38
2022-12-31T10:01:58.738Z,3.50
2022-12-31T10:04:57.338Z,3.92
2022-12-31T10:11:16.808Z,4.63
2022-12-31T10:14:32.491Z,4.40
2022-12-31T10:17:34.700Z,7.50
2022-12-31T10:20:27.610Z,4.47
2022-12-31T10:23:43.935Z,2.85
2022-12-31T10:27:06.266Z,2.80
2022-12-31T10:29:43.175Z,2.75
2022-12-31T10:32:16.325Z,4.07
2022-12-31T10:35:31.611Z,3.33
2022-12-31T10:38:20.698Z,2.15
2022-12-31T10:42:02.510Z,2.47
2022-12-31T10:44:53.262Z,1.85
2022-12-31T10:47:58.554Z,3.15
2022-12-31T10:50:51.416Z,1.67
2022-12-31T10:54:05.063Z,1.48
2022-12-31T10:57:01.257Z,2.08
2022-12-31T11:00:32.824Z,1.37
2022-12-31T11:03:58.706Z,1.00
2022-12-31T11:06:58.312Z,1.40
2022-12-31T11:10:16.313Z,1.02
2022-12-31T11:21:40.940Z,0.85
2022-12-31T11:24:39.368Z,1.17
2022-12-31T11:27:59.795Z,0.85
2022-12-31T11:30:58.715Z,1.10
2022-12-31T11:34:11.816Z,2.40
2022-12-31T11:37:03.622Z,1.60
2022-12-31T11:39:51.436Z,1.58
2022-12-31T11:42:50.184Z,1.00
2022-12-31T11:45:48.692Z,0.68
2022-12-31T11:52:57.078Z,0.90
2022-12-31T11:56:52.856Z,0.77
2022-12-31T12:11:01.119Z,1.17
2022-12-31T12:13:44.778Z,2.03
2022-12-31T12:21:32.532Z,2.38
2022-12-31T12:24:39.865Z,4.13
2022-12-31T12:28:10.153Z,3.17
2022-12-31T12:31:11.534Z,4.32
2022-12-31T12:34:59.787Z,3.22
2022-12-31T12:37:42.428Z,3.47
2022-12-31T12:40:34.367Z,5.13
2022-12-31T12:43:47.585Z,4.68
2022-12-31T12:47:14.809Z,4.75
2022-12-31T12:50:05.412Z,4.88
2022-12-31T12:53:27.321Z,3.20
2022-12-31T12:56:45.271Z,5.03
2022-12-31T12:59:43.586Z,3.75
2022-12-31T13:03:34.366Z,3.05
2022-12-31T13:06:55.233Z,3.80
2022-12-31T13:10:20.912Z,2.75
2022-12-31T13:13:36.219Z,4.78
2022-12-31T13:16:39.648Z,6.28
2022-12-31T13:19:27.225Z,3.50
2022-12-31T13:25:57.892Z,3.92
2022-12-31T13:28:47.458Z,4.47
2022-12-31T13:31:21.893Z,5.53
2022-12-31T13:34:58.693Z,4.60
2022-12-31T13:37:49.072Z,4.13
2022-12-31T13:43:58.675Z,3.72
2022-12-31T13:47:42.775Z,4.75
2022-12-31T13:50:38.010Z,6.03
2022-12-31T13:53:41.223Z,4.50
2022-12-31T13:56:29.448Z,5.15
2022-12-31T13:59:37.913Z,5.40
2022-12-31T14:02:46.745Z,6.20
2022-12-31T14:16:30.534Z,4.80
2022-12-31T14:19:02.204Z,4.43
2022-12-31T14:21:54.199Z,4.25
2022-12-31T14:24:52.730Z,3.70
2022-12-31T14:27:36.942Z,5.55
2022-12-31T14:30:23.494Z,4.85
2022-12-31T14:33:31.994Z,4.00
2022-12-31T14:36:41.978Z,4.40
2022-12-31T14:39:43.702Z,5.28
2022-12-31T14:42:57.613Z,5.70
2022-12-31T14:45:33.035Z,6.88
2022-12-31T14:48:33.368Z,8.38
2022-12-31T14:51:05.820Z,7.03
2022-12-31T14:53:37.276Z,5.85
2022-12-31T14:56:40.498Z,8.15
2022-12-31T15:00:00.557Z,9.55
2022-12-31T15:05:27.107Z,8.30
2022-12-31T15:08:27.396Z,8.55
2022-12-31T15:11:55.040Z,10.60
2022-12-31T15:15:03.175Z,9.38
2022-12-31T15:22:13.432Z,10.68
2022-12-31T15:25:07.012Z,10.30
2022-12-31T15:27:50.253Z,6.28
2022-12-31T15:30:53.079Z,8.10
2022-12-31T15:33:38.141Z,9.43
2022-12-31T15:36:23.965Z,8.65
2022-12-31T15:40:14.912Z,9.20
2022-12-31T15:43:29.831Z,10.90
2022-12-31T15:46:30.696Z,8.23
2022-12-31T15:49:33.385Z,9.88
2022-12-31T15:52:19.621Z,11.30
2022-12-31T15:55:01.115Z,9.07
2022-12-31T15:57:52.435Z,8.10
2022-12-31T16:00:49.868Z,10.80
2022-12-31T16:04:28.800Z,9.88
2022-12-31T16:07:15.803Z,10.27
2022-12-31T16:10:00.852Z,7.53
2022-12-31T16:12:44.621Z,7.22
2022-12-31T16:15:30.679Z,9.98
2022-12-31T16:18:20.808Z,8.20
2022-12-31T16:21:07.096Z,10.18
2022-12-31T16:23:42.669Z,9.35
2022-12-31T16:26:17.915Z,8.73
2022-12-31T16:28:49.868Z,9.90
2022-12-31T16:31:25.639Z,10.40
2022-12-31T16:34:17.775Z,8.35
2022-12-31T16:37:43.764Z,8.35
2022-12-31T16:43:50.607Z,8.57
2022-12-31T16:46:39.288Z,9.32
2022-12-31T16:49:42.645Z,10.15
2022-12-31T16:52:39.230Z,9.48
2022-12-31T16:58:55.099Z,19.35
2022-12-31T17:02:10.624Z,7.53
2022-12-31T17:05:25.068Z,10.50
2022-12-31T17:09:01.219Z,11.93
2022-12-31T17:12:52.711Z,8.57
2022-12-31T17:16:01.590Z,10.88
2022-12-31T17:18:56.723Z,8.32
2022-12-31T17:21:39.926Z,8.55
2022-12-31T17:24:34.725Z,10.83
2022-12-31T17:27:53.590Z,23.17
2022-12-31T17:31:01.857Z,12.35
2022-12-31T17:33:55.034Z,39.08
2022-12-31T17:36:31.706Z,11.27
2022-12-31T17:43:02.372Z,9.43
2022-12-31T17:45:43.101Z,12.57
2022-12-31T17:48:35.061Z,7.80
2022-12-31T17:51:03.952Z,7.13
2022-12-31T17:53:32.905Z,8.20
2022-12-31T17:56:18.911Z,7.63
2022-12-31T17:58:53.981Z,7.75
2022-12-31T18:01:24.287Z,7.63
2022-12-31T18:03:53.668Z,7.22
2022-12-31T18:06:21.907Z,16.80
2022-12-31T18:09:02.346Z,10.20
2022-12-31T18:11:30.741Z,10.55
2022-12-31T18:14:05.707Z,9.43
2022-12-31T18:16:44.933Z,8.85
2022-12-31T18:20:04.185Z,9.10
2022-12-31T18:22:47.593Z,11.98
2022-12-31T18:25:25.653Z,9.25
2022-12-31T18:28:04.379Z,9.07
2022-12-31T18:30:39.529Z,10.48
2022-12-31T18:33:22.888Z,16.27
2022-12-31T18:36:08.902Z,10.00
2022-12-31T18:38:43.403Z,6.95
2022-12-31T18:41:28.128Z,8.55
2022-12-31T18:43:56.627Z,8.45
2022-12-31T18:46:27.871Z,10.35
2022-12-31T18:48:58.529Z,13.10
2022-12-31T18:54:14.351Z,8.80
2022-12-31T18:56:47.677Z,8.73
2022-12-31T18:59:17.240Z,8.15
2022-12-31T19:01:45.317Z,8.10
2022-12-31T19:04:14.313Z,13.90
2022-12-31T19:06:45.561Z,8.98
2022-12-31T19:09:43.278Z,7.63
2022-12-31T19:12:02.108Z,9.35
2022-12-31T19:14:35.511Z,8.90
2022-12-31T19:19:35.112Z,9.20
2022-12-31T19:22:05.180Z,8.30
2022-12-31T19:24:33.144Z,9.45
2022-12-31T19:27:27.166Z,9.13
2022-12-31T19:29:54.917Z,6.68
2022-12-31T19:32:30.540Z,13.23
2022-12-31T19:35:01.475Z,10.75
2022-12-31T19:37:54.206Z,12.32
2022-12-31T19:40:33.162Z,10.60
2022-12-31T19:43:00.960Z,7.32
2022-12-31T19:45:29.898Z,6.28
2022-12-31T19:48:03.460Z,15.57
2022-12-31T19:50:31.965Z,8.73
2022-12-31T19:53:00.711Z,14.13
2022-12-31T19:55:28.501Z,9.38
2022-12-31T19:57:56.273Z,10.00
2022-12-31T20:00:24.255Z,10.00
2022-12-31T20:02:55.031Z,7.80
2022-12-31T20:05:30.750Z,7.38
2022-12-31T20:07:58.531Z,9.82
2022-12-31T20:10:30.963Z,8.43
2022-12-31T20:12:58.944Z,7.32
2022-12-31T20:15:26.713Z,7.25
2022-12-31T20:17:57.767Z,7.28
2022-12-31T20:20:29.221Z,8.43
2022-12-31T20:22:58.009Z,9.65
2022-12-31T20:25:32.130Z,8.10
2022-12-31T20:27:59.915Z,9.35
2022-12-31T20:30:30.167Z,10.77
2022-12-31T20:33:00.839Z,8.10
2022-12-31T20:35:28.510Z,7.05
2022-12-31T20:38:03.987Z,7.50
2022-12-31T20:40:32.946Z,7.82
2022-12-31T20:43:06.136Z,7.30
2022-12-31T20:45:34.017Z,5.88
2022-12-31T20:48:01.967Z,8.02
2022-12-31T20:50:29.550Z,7.57
2022-12-31T20:53:00.145Z,8.75
2022-12-31T20:57:55.528Z,7.75
2022-12-31T21:00:23.623Z,9.23
2022-12-31T21:03:03.851Z,8.43
2022-12-31T21:05:39.637Z,8.45
2022-12-31T21:08:07.480Z,7.00
2022-12-31T21:10:36.342Z,6.68
2022-12-31T21:13:14.439Z,5.53
2022-12-31T21:15:42.785Z,5.50
2022-12-31T21:18:10.602Z,8.57
2022-12-31T21:20:38.325Z,17.58
2022-12-31T21:23:06.233Z,9.02
2022-12-31T21:25:38.986Z,7.50
2022-12-31T21:28:09.170Z,6.25
2022-12-31T21:33:11.245Z,5.18
2022-12-31T21:35:51.911Z,4.32
2022-12-31T21:38:25.829Z,12.38
2022-12-31T21:40:54.348Z,11.63
2022-12-31T21:43:24.581Z,7.28
2022-12-31T21:46:01.678Z,8.73
2022-12-31T21:48:35.892Z,5.80
2022-12-31T21:51:11.505Z,5.43
2022-12-31T21:53:42.582Z,7.72
2022-12-31T21:56:17.461Z,17.52
2022-12-31T21:59:10.262Z,25.38
2022-12-31T22:01:57.223Z,11.13
2022-12-31T22:05:00.287Z,5.60
2022-12-31T22:07:16.555Z,11.55
2022-12-31T22:10:00.602Z,7.20
2022-12-31T22:12:31.164Z,10.82
2022-12-31T22:15:15.275Z,10.70
2022-12-31T22:17:43.908Z,7.28
2022-12-31T22:20:28.285Z,5.93
2022-12-31T22:22:57.220Z,5.15
2022-12-31T22:25:25.035Z,7.88
2022-12-31T22:28:27.557Z,5.22
2022-12-31T22:30:46.060Z,4.03
2022-12-31T22:33:21.529Z,4.97
2022-12-31T22:35:58.816Z,6.18
2022-12-31T22:38:30.562Z,7.18
2022-12-31T22:41:21.684Z,6.40
2022-12-31T22:44:00.250Z,4.85
2022-12-31T22:46:31.509Z,5.20
2022-12-31T22:49:00.888Z,6.13
2022-12-31T22:51:57.630Z,3.95
2022-12-31T22:54:25.581Z,4.03
2022-12-31T22:56:56.407Z,4.15
2022-12-31T22:59:27.325Z,4.13
2022-12-31T23:02:03.659Z,5.25
2022-12-31T23:04:31.594Z,3.70
2022-12-31T23:07:02.064Z,2.42
2022-12-31T23:09:57.563Z,4.47
2022-12-31T23:12:25.434Z,3.08
2022-12-31T23:15:14.409Z,3.03
2022-12-31T23:18:02.247Z,2.95
2022-12-31T23:20:55.413Z,3.25
2022-12-31T23:23:25.762Z,2.85
2022-12-31T23:26:01.977Z,2.88
2022-12-31T23:28:32.502Z,3.22
2022-12-31T23:31:06.385Z,3.70
2022-12-31T23:33:34.397Z,3.03
2022-12-31T23:36:06.078Z,2.03
2022-12-31T23:38:33.789Z,2.55
2022-12-31T23:41:01.475Z,2.63
2022-12-31T23:43:32.170Z,2.50
2022-12-31T23:45:59.863Z,3.75
2022-12-31T23:48:29.976Z,2.95
2022-12-31T23:50:57.691Z,3.13
2022-12-31T23:53:25.754Z,3.10
2022-12-31T23:55:53.799Z,3.13
2022-12-31T23:58:22.496Z,2.78
